Time,TemperatureF,DewpointF,PressureIn,WindDirection,WindDirectionDegrees,WindSpeedMPH,WindSpeedGustMPH,Humidity,HourlyPrecipIn,Conditions,Clouds,dailyrainin,SoftwareType,DateUTC
2012-04-29 00:08:00,55.6,31.0,29.79,NE,36,1.0,4.0,39,0.00,,,0.00,weatherlink.com 1.10,2012-04-29 07:08:00,
2012-04-29 00:23:00,54.6,31.0,29.79,NNE,23,2.0,3.0,40,0.00,,,0.00,weatherlink.com 1.10,2012-04-29 07:23:00,
2012-04-29 00:38:00,54.8,29.0,29.79,NNE,21,2.0,2.0,38,0.00,,,0.00,weatherlink.com 1.10,2012-04-29 07:38:00,
2012-04-29 00:53:00,54.9,29.0,29.79,NNE,27,1.0,3.0,37,0.00,,,0.00,weatherlink.com 1.10,2012-04-29 07:53:00,
2012-04-29 01:08:00,53.8,29.0,29.79,NNE,32,2.0,2.0,39,0.00,,,0.00,weatherlink.com 1.10,2012-04-29 08:08:00,
2012-04-29 01:23:00,53.7,27.0,29.79,NNE,23,3.0,3.0,36,0.00,,,0.00,weatherlink.com 1.10,2012-04-29 08:23:00,
2012-04-29 01:38:00,53.9,27.0,29.78,NE,36,0.0,3.0,35,0.00,,,0.00,weatherlink.com 1.10,2012-04-29 08:38:00,
2012-04-29 01:53:00,52.8,25.0,29.78,NNE,19,2.0,2.0,34,0.00,,,0.00,weatherlink.com 1.10,2012-04-29 08:53:00,
2012-04-29 02:08:00,54.0,25.0,29.78,NNE,18,2.0,3.0,32,0.00,,,0.00,weatherlink.com 1.10,2012-04-29 09:08:00,
2012-04-29 02:23:00,54.1,25.0,29.78,NNE,16,2.0,3.0,33,0.00,,,0.00,weatherlink.com 1.10,2012-04-29 09:23:00,
2012-04-29 02:38:00,53.6,26.0,29.78,NNE,25,2.0,3.0,34,0.00,,,0.00,weatherlink.com 1.10,2012-04-29 09:38:00,
2012-04-29 02:53:00,54.2,25.0,29.77,North,8,3.0,4.0,33,0.00,,,0.00,weatherlink.com 1.10,2012-04-29 09:53:00,
2012-04-29 03:08:00,52.8,27.0,29.77,NNE,30,3.0,3.0,37,0.00,,,0.00,weatherlink.com 1.10,2012-04-29 10:08:00,
2012-04-29 03:23:00,54.0,25.0,29.77,NNE,25,2.0,3.0,33,0.00,,,0.00,weatherlink.com 1.10,2012-04-29 10:23:00,
2012-04-29 03:38:00,55.8,24.0,29.77,NNE,27,3.0,3.0,29,0.00,,,0.00,weatherlink.com 1.10,2012-04-29 10:38:00,
2012-04-29 03:53:00,55.9,23.0,29.78,NNE,23,3.0,4.0,28,0.00,,,0.00,weatherlink.com 1.10,2012-04-29 10:53:00,
2012-04-29 04:08:00,53.8,27.0,29.78,NNE,18,2.0,3.0,35,0.00,,,0.00,weatherlink.com 1.10,2012-04-29 11:08:00,
2012-04-29 04:23:00,53.0,24.0,29.78,NNE,23,1.0,2.0,32,0.00,,,0.00,weatherlink.com 1.10,2012-04-29 11:23:00,
2012-04-29 04:39:00,52.2,25.0,29.78,NNE,20,2.0,3.0,35,0.00,,,0.00,weatherlink.com 1.10,2012-04-29 11:39:00,
2012-04-29 04:53:00,53.7,25.0,29.78,NNE,25,1.0,2.0,33,0.00,,,0.00,weatherlink.com 1.10,2012-04-29 11:53:00,
2012-04-29 05:08:00,54.0,24.0,29.78,NNE,18,2.0,4.0,31,0.00,,,0.00,weatherlink.com 1.10,2012-04-29 12:08:00,
2012-04-29 05:23:00,54.9,23.0,29.79,North,9,2.0,4.0,29,0.00,,,0.00,weatherlink.com 1.10,2012-04-29 12:23:00,
2012-04-29 05:38:00,54.6,22.0,29.78,NE,51,2.0,4.0,28,0.00,,,0.00,weatherlink.com 1.10,2012-04-29 12:38:00,
2012-04-29 05:53:00,54.5,22.0,29.79,NNE,12,2.0,3.0,28,0.00,,,0.00,weatherlink.com 1.10,2012-04-29 12:53:00,
2012-04-29 06:08:00,54.9,23.0,29.79,NNE,16,1.0,3.0,29,0.00,,,0.00,weatherlink.com 1.10,2012-04-29 13:08:00,
2012-04-29 06:24:00,55.5,23.0,29.80,North,1,2.0,4.0,28,0.00,,,0.00,weatherlink.com 1.10,2012-04-29 13:24:00,
2012-04-29 06:39:00,55.4,25.0,29.80,North,354,1.0,3.0,31,0.00,,,0.00,weatherlink.com 1.10,2012-04-29 13:39:00,
2012-04-29 06:54:00,55.4,25.0,29.80,North,1,1.0,3.0,31,0.00,,,0.00,weatherlink.com 1.10,2012-04-29 13:54:00,
2012-04-29 07:09:00,55.0,27.0,29.80,NNE,27,1.0,2.0,34,0.00,,,0.00,weatherlink.com 1.10,2012-04-29 14:09:00,
2012-04-29 07:24:00,56.2,29.0,29.81,North,8,2.0,4.0,35,0.00,,,0.00,weatherlink.com 1.10,2012-04-29 14:24:00,
2012-04-29 07:39:00,58.6,28.0,29.81,North,359,0.0,5.0,31,0.00,,,0.00,weatherlink.com 1.10,2012-04-29 14:39:00,
2012-04-29 07:54:00,60.1,28.0,29.81,North,5,1.0,4.0,30,0.00,,,0.00,weatherlink.com 1.10,2012-04-29 14:54:00,
2012-04-29 08:09:00,60.4,33.0,29.82,NE,56,0.0,2.0,36,0.00,,,0.00,weatherlink.com 1.10,2012-04-29 15:09:00,
2012-04-29 08:24:00,62.2,33.0,29.82,NE,50,0.0,2.0,34,0.00,,,0.00,weatherlink.com 1.10,2012-04-29 15:24:00,
2012-04-29 08:39:00,63.3,29.0,29.83,ENE,58,0.0,1.0,28,0.00,,,0.00,weatherlink.com 1.10,2012-04-29 15:39:00,
2012-04-29 08:54:00,65.4,25.0,29.83,ESE,105,1.0,4.0,22,0.00,,,0.00,weatherlink.com 1.10,2012-04-29 15:54:00,
2012-04-29 09:09:00,66.6,26.0,29.83,East,100,0.0,4.0,22,0.00,,,0.00,weatherlink.com 1.10,2012-04-29 16:09:00,
2012-04-29 09:25:00,67.1,26.0,29.83,ESE,112,1.0,4.0,21,0.00,,,0.00,weatherlink.com 1.10,2012-04-29 16:25:00,
2012-04-29 09:39:00,67.0,25.0,29.84,ESE,120,3.0,6.0,20,0.00,,,0.00,weatherlink.com 1.10,2012-04-29 16:39:00,
2012-04-29 09:54:00,67.7,26.0,29.84,SE,130,0.0,6.0,21,0.00,,,0.00,weatherlink.com 1.10,2012-04-29 16:54:00,
2012-04-29 10:09:00,68.2,26.0,29.84,ESE,120,2.0,5.0,20,0.00,,,0.00,weatherlink.com 1.10,2012-04-29 17:09:00,
2012-04-29 10:24:00,68.3,28.0,29.84,North,349,2.0,6.0,22,0.00,,,0.00,weatherlink.com 1.10,2012-04-29 17:24:00,
2012-04-29 10:39:00,69.0,30.0,29.84,WSW,249,0.0,4.0,23,0.00,,,0.00,weatherlink.com 1.10,2012-04-29 17:39:00,
2012-04-29 10:54:00,69.4,30.0,29.84,NW,304,0.0,6.0,23,0.00,,,0.00,weatherlink.com 1.10,2012-04-29 17:54:00,
2012-04-29 11:09:00,70.2,26.0,29.84,ENE,73,2.0,7.0,19,0.00,,,0.00,weatherlink.com 1.10,2012-04-29 18:09:00,
2012-04-29 11:24:00,71.2,31.0,29.83,SW,223,2.0,11.0,23,0.00,,,0.00,weatherlink.com 1.10,2012-04-29 18:24:00,
2012-04-29 11:39:00,72.1,26.0,29.83,ENE,75,0.0,9.0,18,0.00,,,0.00,weatherlink.com 1.10,2012-04-29 18:39:00,
2012-04-29 11:54:00,72.5,28.0,29.83,SSW,211,3.0,8.0,19,0.00,,,0.00,weatherlink.com 1.10,2012-04-29 18:54:00,
2012-04-29 12:09:00,73.5,30.0,29.83,SW,221,5.0,8.0,20,0.00,,,0.00,weatherlink.com 1.10,2012-04-29 19:09:00,
2012-04-29 12:24:00,73.4,29.0,29.83,SSW,198,8.0,15.0,19,0.00,,,0.00,weatherlink.com 1.10,2012-04-29 19:24:00,
2012-04-29 12:39:00,72.7,32.0,29.82,SSW,206,0.0,10.0,22,0.00,,,0.00,weatherlink.com 1.10,2012-04-29 19:39:00,
2012-04-29 12:55:00,73.2,28.0,29.82,SW,215,2.0,11.0,19,0.00,,,0.00,weatherlink.com 1.10,2012-04-29 19:55:00,
2012-04-29 13:10:00,73.8,35.0,29.82,SW,217,5.0,11.0,24,0.00,,,0.00,weatherlink.com 1.10,2012-04-29 20:10:00,
2012-04-29 13:25:00,74.3,28.0,29.82,East,94,3.0,5.0,18,0.00,,,0.00,weatherlink.com 1.10,2012-04-29 20:25:00,
2012-04-29 13:55:00,73.8,30.0,29.82,North,349,2.0,7.0,20,0.00,,,0.00,weatherlink.com 1.10,2012-04-29 20:55:00,
2012-04-29 14:10:00,74.7,27.0,29.82,East,91,1.0,5.0,17,0.00,,,0.00,weatherlink.com 1.10,2012-04-29 21:10:00,
2012-04-29 14:25:00,75.6,32.0,29.82,SW,236,4.0,5.0,20,0.00,,,0.00,weatherlink.com 1.10,2012-04-29 21:25:00,
2012-04-29 14:40:00,75.8,29.0,29.82,SSW,200,0.0,6.0,18,0.00,,,0.00,weatherlink.com 1.10,2012-04-29 21:40:00,
2012-04-29 14:55:00,75.5,29.0,29.81,SE,125,0.0,4.0,18,0.00,,,0.00,weatherlink.com 1.10,2012-04-29 21:55:00,
2012-04-29 15:10:00,74.2,42.0,29.81,West,278,1.0,5.0,32,0.00,,,0.00,weatherlink.com 1.10,2012-04-29 22:10:00,
2012-04-29 15:25:00,73.5,43.0,29.80,WNW,285,1.0,4.0,34,0.00,,,0.00,weatherlink.com 1.10,2012-04-29 22:25:00,
2012-04-29 15:40:00,72.5,44.0,29.80,West,274,2.0,4.0,36,0.00,,,0.00,weatherlink.com 1.10,2012-04-29 22:40:00,
2012-04-29 15:55:00,71.7,45.0,29.80,WSW,239,1.0,5.0,38,0.00,,,0.00,weatherlink.com 1.10,2012-04-29 22:55:00,
2012-04-29 16:10:00,71.4,44.0,29.79,SSE,167,1.0,6.0,37,0.00,,,0.00,weatherlink.com 1.10,2012-04-29 23:10:00,
2012-04-29 16:25:00,70.5,44.0,29.80,WSW,240,2.0,3.0,39,0.00,,,0.00,weatherlink.com 1.10,2012-04-29 23:25:00,
2012-04-29 16:40:00,70.0,44.0,29.80,West,259,1.0,5.0,40,0.00,,,0.00,weatherlink.com 1.10,2012-04-29 23:40:00,
2012-04-29 16:55:00,69.8,44.0,29.80,North,9,3.0,4.0,40,0.00,,,0.00,weatherlink.com 1.10,2012-04-29 23:55:00,
2012-04-29 17:10:00,69.3,44.0,29.80,WNW,285,1.0,5.0,40,0.00,,,0.00,weatherlink.com 1.10,2012-04-30 00:10:00,
2012-04-29 17:25:00,68.4,47.0,29.80,NNE,12,3.0,3.0,46,0.00,,,0.00,weatherlink.com 1.10,2012-04-30 00:25:00,
2012-04-29 17:40:00,67.1,49.0,29.79,West,279,2.0,4.0,53,0.00,,,0.00,weatherlink.com 1.10,2012-04-30 00:40:00,
2012-04-29 17:55:00,66.7,50.0,29.79,NNW,343,0.0,3.0,55,0.00,,,0.00,weatherlink.com 1.10,2012-04-30 00:55:00,
2012-04-29 18:10:00,66.6,51.0,29.79,WNW,294,0.0,2.0,57,0.00,,,0.00,weatherlink.com 1.10,2012-04-30 01:10:00,
2012-04-29 18:25:00,66.2,51.0,29.79,NW,305,0.0,2.0,59,0.00,,,0.00,weatherlink.com 1.10,2012-04-30 01:25:00,
2012-04-29 18:40:00,65.4,52.0,29.80,NW,309,0.0,2.0,62,0.00,,,0.00,weatherlink.com 1.10,2012-04-30 01:40:00,
2012-04-29 18:55:00,64.6,52.0,29.80,North,6,0.0,1.0,63,0.00,,,0.00,weatherlink.com 1.10,2012-04-30 01:55:00,
2012-04-29 19:10:00,63.0,52.0,29.81,North,5,1.0,2.0,68,0.00,,,0.00,weatherlink.com 1.10,2012-04-30 02:10:00,
2012-04-29 19:25:00,61.4,41.0,29.81,NNE,21,1.0,3.0,48,0.00,,,0.00,weatherlink.com 1.10,2012-04-30 02:25:00,
2012-04-29 19:40:00,61.2,40.0,29.82,North,1,1.0,4.0,45,0.00,,,0.00,weatherlink.com 1.10,2012-04-30 02:40:00,
2012-04-29 19:55:00,60.6,39.0,29.82,North,1,2.0,4.0,45,0.00,,,0.00,weatherlink.com 1.10,2012-04-30 02:55:00,
2012-04-29 20:10:00,60.5,38.0,29.83,NNE,20,2.0,4.0,44,0.00,,,0.00,weatherlink.com 1.10,2012-04-30 03:10:00,
2012-04-29 20:25:00,60.3,37.0,29.84,NNE,25,3.0,5.0,43,0.00,,,0.00,weatherlink.com 1.10,2012-04-30 03:25:00,
2012-04-29 20:40:00,60.5,38.0,29.84,NNW,334,3.0,5.0,43,0.00,,,0.00,weatherlink.com 1.10,2012-04-30 03:40:00,
2012-04-29 20:55:00,60.6,36.0,29.84,North,8,2.0,4.0,40,0.00,,,0.00,weatherlink.com 1.10,2012-04-30 03:55:00,
2012-04-29 21:10:00,60.7,35.0,29.85,NNE,12,2.0,4.0,38,0.00,,,0.00,weatherlink.com 1.10,2012-04-30 04:10:00,
2012-04-29 21:25:00,60.2,34.0,29.86,NNE,21,2.0,4.0,37,0.00,,,0.00,weatherlink.com 1.10,2012-04-30 04:25:00,
2012-04-29 21:40:00,60.4,34.0,29.86,NNW,338,3.0,5.0,37,0.00,,,0.00,weatherlink.com 1.10,2012-04-30 04:40:00,
2012-04-29 21:55:00,60.1,35.0,29.87,NNE,27,2.0,3.0,39,0.00,,,0.00,weatherlink.com 1.10,2012-04-30 04:55:00,
2012-04-29 22:10:00,59.9,34.0,29.87,NNE,25,2.0,4.0,38,0.00,,,0.00,weatherlink.com 1.10,2012-04-30 05:10:00,
2012-04-29 22:25:00,60.0,34.0,29.87,NNE,33,2.0,4.0,38,0.00,,,0.00,weatherlink.com 1.10,2012-04-30 05:25:00,
2012-04-29 22:40:00,59.0,34.0,29.87,North,9,3.0,5.0,39,0.00,,,0.00,weatherlink.com 1.10,2012-04-30 05:40:00,
2012-04-29 22:55:00,59.0,34.0,29.87,NNE,16,2.0,3.0,39,0.00,,,0.00,weatherlink.com 1.10,2012-04-30 05:55:00,
2012-04-29 23:10:00,59.0,35.0,29.87,NNW,333,3.0,5.0,40,0.00,,,0.00,weatherlink.com 1.10,2012-04-30 06:10:00,
2012-04-29 23:26:00,58.7,35.0,29.87,NNE,14,2.0,3.0,41,0.00,,,0.00,weatherlink.com 1.10,2012-04-30 06:26:00,
2012-04-29 23:40:00,58.6,36.0,29.88,NNE,19,2.0,4.0,43,0.00,,,0.00,weatherlink.com 1.10,2012-04-30 06:40:00,
2012-04-29 23:55:00,57.0,36.0,29.88,NNE,18,2.0,2.0,46,0.00,,,0.00,weatherlink.com 1.10,2012-04-30 06:55:00,